Main page
METAR-TAF:

METAR-TAF

Airports :

Oil platform

P11-b, Netherlands

latitude: 52-21-36N, longitude: 3-20-30E, elevation: 24 m

Current weather observation

The report was made 27 minutes ago, at 19:25 UTC
Wind 10 kt from the Northwest, varying between West and North
Temperature 14°C
Humidity 82%
Pressure 1025 hPa
Visibility 10 km or more

METAR: EHPG 231925Z AUTO 32010KT 280V350 9999 NSC 14/11 Q1025 W///H///

Time: 21:52 (19:52 UTC)


TAF: missing

Weather observations and forecasts of more than 4000 airports (METAR and TAF reports).

The available stations are represented by yellow and red dots on the map.

Hover mouse over dot to see the name of the station.

Then click to see weather observations and forecasts.

To change the map : click on the green buttons with a black cross to zoom in, on the green button with a dash to zoom out, or on the green arrows for adjacent maps.


METAR-TAF: